createdAt,value
2023-02-16T00:01:24.805Z,28.03
2023-02-16T00:03:55.251Z,33.13
2023-02-16T00:06:23.615Z,37.93
2023-02-16T00:08:53.402Z,33.87
2023-02-16T00:11:42.959Z,30.87
2023-02-16T00:14:12.516Z,32.27
2023-02-16T00:16:41.017Z,31.70
2023-02-16T00:19:22.325Z,35.67
2023-02-16T00:21:51.953Z,28.67
2023-02-16T00:24:20.296Z,33.07
2023-02-16T00:26:48.989Z,29.23
2023-02-16T00:29:21.959Z,29.37
2023-02-16T00:31:50.448Z,26.77
2023-02-16T00:34:34.249Z,31.83
2023-02-16T00:37:04.253Z,29.47
2023-02-16T00:39:32.551Z,25.63
2023-02-16T00:42:02.947Z,29.97
2023-02-16T00:44:35.150Z,45.67
2023-02-16T00:47:11.842Z,24.47
2023-02-16T00:49:41.319Z,26.07
2023-02-16T00:52:34.091Z,23.30
2023-02-16T00:55:04.413Z,27.97
2023-02-16T00:57:35.261Z,27.37
2023-02-16T01:00:09.076Z,26.43
2023-02-16T01:02:37.423Z,27.67
2023-02-16T01:05:07.577Z,27.07
2023-02-16T01:07:53.258Z,25.00
2023-02-16T01:10:39.703Z,25.93
2023-02-16T01:13:07.814Z,25.73
2023-02-16T01:15:36.910Z,23.50
2023-02-16T01:18:05.107Z,28.37
2023-02-16T01:20:36.327Z,26.60
2023-02-16T01:23:04.400Z,28.53
2023-02-16T01:25:32.531Z,28.83
2023-02-16T01:28:00.621Z,22.33
2023-02-16T01:30:29.105Z,26.60
2023-02-16T01:32:57.135Z,26.40
2023-02-16T01:35:29.990Z,29.90
2023-02-16T01:37:59.413Z,28.90
2023-02-16T01:40:43.946Z,28.27
2023-02-16T01:43:19.890Z,24.90
2023-02-16T01:45:53.055Z,26.30
2023-02-16T01:48:26.675Z,22.70
2023-02-16T01:51:00.461Z,23.97
2023-02-16T01:53:34.442Z,22.27
2023-02-16T01:56:07.042Z,27.63
2023-02-16T01:58:44.524Z,23.80
2023-02-16T02:01:44.819Z,28.70
2023-02-16T02:04:40.988Z,25.80
2023-02-16T02:07:15.575Z,24.08
2023-02-16T02:09:50.865Z,19.87
2023-02-16T02:12:28.569Z,22.30
2023-02-16T02:14:57.409Z,22.97
2023-02-16T02:17:26.240Z,23.65
2023-02-16T02:20:02.810Z,26.83
2023-02-16T02:23:26.484Z,18.83
2023-02-16T02:26:30.963Z,23.97
2023-02-16T02:29:11.938Z,23.95
2023-02-16T02:31:56.074Z,25.03
2023-02-16T02:34:31.961Z,26.63
2023-02-16T02:37:06.438Z,21.48
2023-02-16T02:39:46.061Z,26.27
2023-02-16T02:42:20.993Z,22.08
2023-02-16T02:44:54.309Z,21.83
2023-02-16T02:47:23.202Z,23.33
2023-02-16T02:49:52.612Z,28.25
2023-02-16T02:52:21.384Z,17.93
2023-02-16T02:55:08.058Z,21.88
2023-02-16T02:57:53.723Z,21.73
2023-02-16T03:00:41.526Z,20.75
2023-02-16T03:03:13.158Z,22.55
2023-02-16T03:05:45.324Z,20.23
2023-02-16T03:08:17.512Z,20.17
2023-02-16T03:11:06.949Z,22.58
2023-02-16T03:13:39.287Z,20.17
2023-02-16T03:16:12.318Z,20.40
2023-02-16T03:19:00.537Z,27.40
2023-02-16T03:21:47.851Z,18.70
2023-02-16T03:24:40.039Z,19.73
2023-02-16T03:27:27.814Z,19.05
2023-02-16T03:29:57.973Z,18.20
2023-02-16T03:32:28.094Z,20.90
2023-02-16T03:34:56.154Z,16.30
2023-02-16T03:37:24.401Z,22.05
2023-02-16T03:40:12.431Z,26.80
2023-02-16T03:42:40.561Z,19.27
2023-02-16T03:45:09.733Z,22.55
2023-02-16T03:47:39.124Z,17.80
2023-02-16T03:50:08.661Z,23.45
2023-02-16T03:52:36.739Z,17.25
2023-02-16T03:55:04.904Z,19.17
2023-02-16T03:57:32.942Z,19.77
2023-02-16T04:00:01.154Z,17.85
2023-02-16T04:02:29.986Z,19.40
2023-02-16T04:04:59.506Z,18.98
2023-02-16T04:07:27.622Z,20.85
2023-02-16T04:09:55.765Z,21.17
2023-02-16T04:12:39.056Z,20.50
2023-02-16T04:15:09.407Z,19.15
2023-02-16T04:17:38.035Z,18.00
2023-02-16T04:20:09.758Z,19.58
2023-02-16T04:22:37.819Z,20.00
2023-02-16T04:25:06.716Z,20.65
2023-02-16T04:27:34.761Z,21.30
2023-02-16T04:30:02.918Z,19.70
2023-02-16T04:32:31.094Z,27.27
2023-02-16T04:34:59.298Z,21.73
2023-02-16T04:37:28.850Z,21.13
2023-02-16T04:39:56.944Z,21.25
2023-02-16T04:42:24.965Z,26.15
2023-02-16T04:44:53.352Z,26.58
2023-02-16T04:47:22.925Z,27.98
2023-02-16T04:49:50.953Z,41.38
2023-02-16T04:52:19.613Z,40.65
2023-02-16T04:54:49.171Z,44.90
2023-02-16T04:57:17.732Z,37.88
2023-02-16T04:59:46.199Z,52.17
2023-02-16T05:02:14.226Z,39.17
2023-02-16T05:04:43.137Z,43.63
2023-02-16T05:07:11.307Z,36.63
2023-02-16T05:09:39.406Z,36.20
2023-02-16T05:12:26.552Z,36.15
2023-02-16T05:14:54.701Z,32.45
2023-02-16T05:17:24.235Z,31.48
2023-02-16T05:19:53.975Z,28.00
2023-02-16T05:22:22.086Z,25.65
2023-02-16T05:24:50.981Z,25.15
2023-02-16T05:27:22.369Z,30.83
2023-02-16T05:29:50.453Z,29.90
2023-02-16T05:32:19.092Z,29.15
2023-02-16T05:34:47.300Z,24.98
2023-02-16T05:37:17.225Z,24.35
2023-02-16T05:39:45.889Z,26.23
2023-02-16T05:42:14.178Z,24.80
2023-02-16T05:44:43.647Z,30.27
2023-02-16T05:47:11.684Z,26.77
2023-02-16T05:49:39.785Z,29.95
2023-02-16T05:52:07.784Z,28.08
2023-02-16T05:54:35.949Z,33.25
2023-02-16T05:57:03.966Z,28.73
2023-02-16T05:59:32.954Z,27.92
2023-02-16T06:02:02.392Z,26.90
2023-02-16T06:04:32.550Z,26.55
2023-02-16T06:07:00.638Z,21.27
2023-02-16T06:09:29.003Z,19.13
2023-02-16T06:11:57.095Z,25.83
2023-02-16T06:14:25.247Z,24.60
2023-02-16T06:16:53.322Z,27.77
2023-02-16T06:19:22.713Z,21.70
2023-02-16T06:21:50.761Z,20.20
2023-02-16T06:24:18.836Z,30.15
2023-02-16T06:26:46.874Z,23.48
2023-02-16T06:29:14.910Z,23.15
2023-02-16T06:31:43.152Z,24.83
2023-02-16T06:34:11.256Z,22.17
2023-02-16T06:36:42.544Z,19.80
2023-02-16T06:39:10.798Z,32.40
2023-02-16T06:41:40.436Z,24.23
2023-02-16T06:44:12.332Z,22.52
2023-02-16T06:46:40.924Z,27.38
2023-02-16T06:49:09.241Z,25.73
2023-02-16T06:51:37.340Z,27.70
2023-02-16T06:54:06.960Z,18.40
2023-02-16T06:56:37.690Z,20.48
2023-02-16T06:59:06.225Z,24.10
2023-02-16T07:01:34.278Z,21.33
2023-02-16T07:04:02.305Z,25.23
2023-02-16T07:06:30.926Z,20.33
2023-02-16T07:09:00.057Z,22.13
2023-02-16T07:11:29.802Z,19.45
2023-02-16T07:13:57.841Z,21.95
2023-02-16T07:16:26.172Z,23.92
2023-02-16T07:18:54.239Z,21.75
2023-02-16T07:21:22.300Z,23.58
2023-02-16T07:23:50.534Z,31.83
2023-02-16T07:26:18.603Z,23.58
2023-02-16T07:28:48.002Z,22.00
2023-02-16T07:31:17.713Z,30.88
2023-02-16T07:33:46.070Z,26.63
2023-02-16T07:36:14.936Z,30.03
2023-02-16T07:38:43.012Z,38.22
2023-02-16T07:41:12.223Z,31.80
2023-02-16T07:43:42.764Z,37.53
2023-02-16T07:46:12.380Z,32.93
2023-02-16T07:48:40.499Z,36.93
2023-02-16T07:51:08.732Z,41.90
2023-02-16T07:53:36.997Z,46.57
2023-02-16T07:56:05.440Z,43.53
2023-02-16T07:58:33.464Z,52.07
2023-02-16T08:01:08.675Z,51.50
2023-02-16T08:03:38.173Z,48.27
2023-02-16T08:06:07.478Z,52.17
2023-02-16T08:08:36.250Z,53.87
2023-02-16T08:11:10.897Z,48.50
2023-02-16T08:13:39.173Z,47.97
2023-02-16T08:16:10.094Z,55.43
2023-02-16T08:18:41.729Z,54.00
2023-02-16T08:21:14.267Z,52.30
2023-02-16T08:23:47.333Z,61.30
2023-02-16T08:26:18.214Z,48.20
2023-02-16T08:28:47.143Z,50.53
2023-02-16T08:31:16.976Z,52.80
2023-02-16T08:33:47.712Z,49.93
2023-02-16T08:36:19.781Z,57.97
2023-02-16T08:38:50.448Z,54.73
2023-02-16T08:41:19.084Z,54.83
2023-02-16T08:43:47.378Z,54.07
2023-02-16T08:46:16.036Z,48.90
2023-02-16T08:48:45.301Z,69.03
2023-02-16T08:51:18.446Z,54.97
2023-02-16T08:53:47.104Z,61.23
2023-02-16T08:56:16.912Z,47.10
2023-02-16T08:58:45.206Z,53.17
2023-02-16T09:01:15.197Z,50.63
2023-02-16T09:03:46.159Z,51.57
2023-02-16T09:06:17.592Z,48.57
2023-02-16T09:08:46.575Z,56.40
2023-02-16T09:11:16.579Z,50.63
2023-02-16T09:13:44.970Z,53.60
2023-02-16T09:16:16.334Z,53.30
2023-02-16T09:18:45.692Z,53.30
2023-02-16T09:21:16.889Z,62.13
2023-02-16T09:23:48.115Z,54.90
2023-02-16T09:26:16.607Z,66.57
2023-02-16T09:28:45.783Z,58.87
2023-02-16T09:31:15.479Z,61.20
2023-02-16T09:33:45.461Z,60.93
2023-02-16T09:36:14.338Z,62.17
2023-02-16T09:38:43.762Z,64.30
2023-02-16T09:41:32.001Z,58.47
2023-02-16T09:44:03.928Z,76.60
2023-02-16T09:46:33.809Z,63.23
2023-02-16T09:49:04.607Z,73.60
2023-02-16T09:51:37.463Z,71.93
2023-02-16T09:54:21.299Z,63.70
2023-02-16T09:56:57.521Z,74.17
2023-02-16T09:59:42.377Z,66.33
2023-02-16T10:02:28.591Z,67.90
2023-02-16T10:05:20.210Z,74.77
2023-02-16T10:08:01.063Z,85.10
2023-02-16T10:10:46.373Z,73.43
2023-02-16T10:13:23.178Z,90.80
2023-02-16T10:15:54.098Z,69.17
2023-02-16T10:18:29.307Z,70.23
2023-02-16T10:21:02.311Z,69.93
2023-02-16T10:23:39.014Z,75.30
2023-02-16T10:26:18.925Z,61.40
2023-02-16T10:28:50.234Z,70.00
2023-02-16T10:31:24.926Z,68.13
2023-02-16T10:34:06.034Z,66.80
2023-02-16T10:36:50.574Z,82.07
2023-02-16T10:39:23.735Z,79.37
2023-02-16T10:42:01.609Z,75.23
2023-02-16T10:44:35.099Z,78.83
2023-02-16T10:47:06.409Z,76.07
2023-02-16T10:49:37.962Z,82.33
2023-02-16T10:52:08.719Z,79.87
2023-02-16T10:54:37.827Z,80.80
2023-02-16T10:57:13.618Z,86.57
2023-02-16T10:59:43.905Z,80.13
2023-02-16T11:02:19.986Z,85.47
2023-02-16T11:04:52.447Z,84.57
2023-02-16T11:07:22.490Z,90.77
2023-02-16T11:09:53.067Z,94.87
2023-02-16T11:12:40.704Z,100.23
2023-02-16T11:15:24.212Z,94.70
2023-02-16T11:17:54.437Z,94.37
2023-02-16T11:20:32.678Z,96.90
2023-02-16T11:23:24.217Z,92.33
2023-02-16T11:26:00.888Z,101.87
2023-02-16T11:28:33.233Z,95.50
2023-02-16T11:31:12.264Z,90.57
2023-02-16T11:33:42.020Z,105.83
2023-02-16T11:36:29.118Z,94.10
2023-02-16T11:39:00.681Z,99.10
2023-02-16T11:41:30.586Z,104.80
2023-02-16T11:44:00.673Z,93.73
2023-02-16T11:46:28.869Z,105.87
2023-02-16T11:48:56.974Z,98.10
2023-02-16T11:51:34.895Z,95.87
2023-02-16T11:54:06.227Z,102.60
2023-02-16T11:56:36.580Z,105.93
2023-02-16T11:59:13.920Z,115.53
2023-02-16T12:02:02.569Z,98.63
2023-02-16T12:04:43.746Z,120.30
2023-02-16T12:07:23.094Z,112.80
2023-02-16T12:10:00.361Z,96.57
2023-02-16T12:12:34.894Z,109.97
2023-02-16T12:15:13.793Z,110.17
2023-02-16T12:17:56.873Z,104.00
2023-02-16T12:20:42.447Z,104.53
2023-02-16T12:23:28.179Z,113.97
2023-02-16T12:26:11.357Z,114.80
2023-02-16T12:28:46.854Z,109.70
2023-02-16T12:31:27.628Z,105.17
2023-02-16T12:34:08.171Z,107.80
2023-02-16T12:36:55.698Z,124.87
2023-02-16T12:39:31.177Z,106.53
2023-02-16T12:42:16.961Z,121.00
2023-02-16T12:44:49.594Z,124.20
2023-02-16T12:47:24.783Z,114.67
2023-02-16T12:49:56.449Z,117.93
2023-02-16T12:52:35.408Z,115.50
2023-02-16T12:55:18.070Z,111.83
2023-02-16T12:57:53.146Z,116.17
2023-02-16T13:00:27.013Z,112.73
2023-02-16T13:03:04.955Z,113.47
2023-02-16T13:05:38.541Z,105.43
2023-02-16T13:08:10.622Z,106.83
2023-02-16T13:10:48.231Z,108.47
2023-02-16T13:13:19.167Z,111.17
2023-02-16T13:15:52.248Z,118.63
2023-02-16T13:18:23.734Z,141.73
2023-02-16T13:20:59.176Z,124.07
2023-02-16T13:23:48.201Z,122.37
2023-02-16T13:26:33.613Z,120.83
2023-02-16T13:29:29.349Z,125.90
2023-02-16T13:32:10.135Z,125.47
2023-02-16T13:34:57.944Z,115.27
2023-02-16T13:37:36.899Z,119.87
2023-02-16T13:40:26.390Z,121.20
2023-02-16T13:43:17.704Z,126.37
2023-02-16T13:45:48.165Z,114.00
2023-02-16T13:48:23.098Z,117.43
2023-02-16T13:51:00.013Z,139.43
2023-02-16T13:53:34.735Z,128.30
2023-02-16T13:56:22.362Z,117.67
2023-02-16T13:58:51.991Z,116.57
2023-02-16T14:01:38.903Z,130.87
2023-02-16T14:04:13.102Z,126.73
2023-02-16T14:06:43.716Z,124.73
2023-02-16T14:09:48.843Z,131.90
2023-02-16T14:12:21.216Z,117.63
2023-02-16T14:15:02.010Z,124.97
2023-02-16T14:17:33.311Z,135.43
2023-02-16T14:20:04.891Z,130.40
2023-02-16T14:22:41.377Z,135.57
2023-02-16T14:25:34.992Z,128.43
2023-02-16T14:28:05.619Z,125.20
2023-02-16T14:30:37.204Z,123.40
2023-02-16T14:33:18.265Z,118.03
2023-02-16T14:35:48.584Z,122.83
2023-02-16T14:38:23.281Z,124.23
2023-02-16T14:40:55.540Z,132.30
2023-02-16T14:43:29.272Z,124.53
2023-02-16T14:46:29.335Z,124.63
2023-02-16T14:49:28.244Z,128.60
2023-02-16T14:52:19.132Z,129.13
2023-02-16T14:55:12.273Z,128.90
2023-02-16T14:57:44.484Z,128.30
2023-02-16T15:00:19.873Z,126.43
2023-02-16T15:02:57.050Z,124.60
2023-02-16T15:05:28.792Z,119.40
2023-02-16T15:08:05.066Z,135.93
2023-02-16T15:10:34.570Z,127.70
2023-02-16T15:13:02.885Z,121.80
2023-02-16T15:15:42.618Z,125.00
2023-02-16T15:18:16.493Z,123.37
2023-02-16T15:20:47.193Z,139.80
2023-02-16T15:23:21.543Z,126.53
2023-02-16T15:26:00.082Z,125.47
2023-02-16T15:28:29.672Z,117.93
2023-02-16T15:30:59.927Z,121.40
2023-02-16T15:33:34.260Z,122.20
2023-02-16T15:36:05.891Z,120.30
2023-02-16T15:38:36.030Z,114.93
2023-02-16T15:41:07.750Z,133.60
2023-02-16T15:43:39.932Z,136.43
2023-02-16T15:46:14.854Z,128.47
2023-02-16T15:48:42.905Z,131.63
2023-02-16T15:51:15.243Z,128.77
2023-02-16T15:53:48.888Z,134.80
2023-02-16T15:56:27.965Z,136.40
2023-02-16T15:58:57.073Z,119.57
2023-02-16T16:01:33.199Z,137.73
2023-02-16T16:04:04.393Z,140.47
2023-02-16T16:06:37.682Z,144.60
2023-02-16T16:09:08.551Z,100.30
2023-02-16T16:11:38.566Z,36.13
2023-02-16T16:14:07.940Z,35.73
2023-02-16T16:16:36.804Z,38.57
2023-02-16T16:19:15.453Z,43.50
2023-02-16T16:21:54.328Z,30.33
2023-02-16T16:24:34.009Z,23.60
2023-02-16T16:27:09.660Z,27.20
2023-02-16T16:29:41.255Z,27.07
2023-02-16T16:32:19.488Z,25.93
2023-02-16T16:34:48.472Z,31.40
2023-02-16T16:37:26.325Z,23.27
2023-02-16T16:40:05.638Z,29.50
2023-02-16T16:42:39.896Z,26.50
2023-02-16T16:45:30.021Z,24.10
2023-02-16T16:47:58.762Z,27.60
2023-02-16T16:50:32.658Z,28.90
2023-02-16T16:53:00.830Z,30.43
2023-02-16T16:55:32.234Z,27.10
2023-02-16T16:58:04.846Z,30.43
2023-02-16T17:00:35.444Z,24.57
2023-02-16T17:03:04.132Z,27.70
2023-02-16T17:05:32.508Z,26.73
2023-02-16T17:08:00.601Z,30.00
2023-02-16T17:10:29.574Z,33.03
2023-02-16T17:12:59.923Z,29.33
2023-02-16T17:15:39.556Z,28.50
2023-02-16T17:18:10.640Z,31.43
2023-02-16T17:20:38.733Z,37.13
2023-02-16T17:23:06.805Z,32.83
2023-02-16T17:25:35.850Z,30.27
2023-02-16T17:28:04.780Z,29.23
2023-02-16T17:30:34.525Z,31.73
2023-02-16T17:33:03.198Z,30.67
2023-02-16T17:35:32.307Z,29.37
2023-02-16T17:38:00.473Z,30.37
2023-02-16T17:40:28.584Z,35.20
2023-02-16T17:42:56.612Z,34.57
2023-02-16T17:45:24.675Z,35.03
2023-02-16T17:47:54.383Z,29.63
2023-02-16T17:50:22.680Z,35.73
2023-02-16T17:52:57.050Z,38.53
2023-02-16T17:55:25.604Z,33.77
2023-02-16T17:57:55.716Z,31.53
2023-02-16T18:00:23.877Z,28.30
2023-02-16T18:02:53.316Z,36.87
2023-02-16T18:05:21.417Z,36.27
2023-02-16T18:07:49.488Z,32.07
2023-02-16T18:10:21.934Z,33.33
2023-02-16T18:12:49.978Z,31.23
2023-02-16T18:15:18.198Z,33.47
2023-02-16T18:17:46.207Z,38.73
2023-02-16T18:20:17.771Z,33.83
2023-02-16T18:22:45.921Z,30.03
2023-02-16T18:25:14.273Z,37.53
2023-02-16T18:27:42.703Z,35.80
2023-02-16T18:30:12.238Z,38.00
2023-02-16T18:32:41.823Z,35.47
2023-02-16T18:35:10.753Z,29.10
2023-02-16T18:37:40.461Z,35.57
2023-02-16T18:40:12.266Z,32.10
2023-02-16T18:42:40.330Z,34.80
2023-02-16T18:45:09.541Z,32.40
2023-02-16T18:47:37.639Z,31.20
2023-02-16T18:50:06.806Z,33.43
2023-02-16T18:52:35.116Z,42.27
2023-02-16T18:55:04.745Z,35.00
2023-02-16T18:57:32.764Z,34.77
2023-02-16T19:00:00.881Z,36.47
2023-02-16T19:02:28.922Z,40.40
2023-02-16T19:04:57.038Z,36.40
2023-02-16T19:07:25.096Z,31.20
2023-02-16T19:09:53.482Z,29.80
2023-02-16T19:12:23.185Z,40.80
2023-02-16T19:14:51.342Z,33.57
2023-02-16T19:17:19.471Z,36.60
2023-02-16T19:19:47.883Z,44.90
2023-02-16T19:22:15.978Z,49.27
2023-02-16T19:24:44.078Z,44.20
2023-02-16T19:27:12.172Z,37.27
2023-02-16T19:29:42.252Z,45.23
2023-02-16T19:32:10.311Z,42.17
2023-02-16T19:34:38.457Z,45.37
2023-02-16T19:37:06.536Z,41.10
2023-02-16T19:39:34.614Z,36.63
2023-02-16T19:42:02.656Z,39.33
2023-02-16T19:44:30.772Z,41.23
2023-02-16T19:47:00.201Z,40.67
2023-02-16T19:49:28.320Z,36.43
2023-02-16T19:51:56.454Z,40.77
2023-02-16T19:54:25.203Z,42.23
2023-02-16T19:56:54.124Z,44.70
2023-02-16T19:59:23.140Z,49.07
2023-02-16T20:01:51.592Z,40.73
2023-02-16T20:04:21.089Z,36.07
2023-02-16T20:06:49.717Z,38.93
2023-02-16T20:09:18.708Z,46.40
2023-02-16T20:11:46.823Z,44.60
2023-02-16T20:14:15.279Z,44.10
2023-02-16T20:16:43.878Z,41.67
2023-02-16T20:19:12.088Z,38.97
2023-02-16T20:21:44.308Z,42.17
2023-02-16T20:24:13.679Z,43.90
2023-02-16T20:26:44.732Z,43.57
2023-02-16T20:29:15.386Z,37.00
2023-02-16T20:31:48.102Z,41.80
2023-02-16T20:34:16.503Z,46.23
2023-02-16T20:36:45.921Z,50.17
2023-02-16T20:39:14.270Z,40.07
2023-02-16T20:41:42.523Z,46.50
2023-02-16T20:44:11.369Z,44.83
2023-02-16T20:46:40.499Z,41.47
2023-02-16T20:49:09.683Z,41.90
2023-02-16T20:51:38.782Z,43.47
2023-02-16T20:54:08.221Z,43.13
2023-02-16T20:56:36.348Z,43.07
2023-02-16T20:59:05.128Z,44.70
2023-02-16T21:01:38.106Z,40.77
2023-02-16T21:04:07.664Z,41.60
2023-02-16T21:06:35.793Z,43.83
2023-02-16T21:09:04.914Z,46.67
2023-02-16T21:11:34.764Z,40.40
2023-02-16T21:14:03.238Z,53.90
2023-02-16T21:16:31.794Z,40.73
2023-02-16T21:18:59.957Z,56.00
2023-02-16T21:21:28.160Z,43.57
2023-02-16T21:23:56.539Z,48.53
2023-02-16T21:26:26.261Z,44.67
2023-02-16T21:28:55.669Z,44.47
2023-02-16T21:31:25.637Z,46.20
2023-02-16T21:33:54.715Z,44.30
2023-02-16T21:36:24.781Z,45.87
2023-02-16T21:38:53.005Z,45.13
2023-02-16T21:41:25.344Z,44.40
2023-02-16T21:44:00.801Z,41.50
2023-02-16T21:46:30.804Z,42.50
2023-02-16T21:48:58.404Z,43.87
2023-02-16T21:51:29.047Z,41.90
2023-02-16T21:53:57.398Z,38.63
2023-02-16T21:56:33.155Z,40.00
2023-02-16T21:59:03.595Z,40.60
2023-02-16T22:01:34.531Z,37.40
2023-02-16T22:04:03.636Z,39.47
2023-02-16T22:06:34.655Z,40.17
2023-02-16T22:09:07.165Z,41.63
2023-02-16T22:11:35.351Z,38.13
2023-02-16T22:14:04.957Z,41.27
2023-02-16T22:16:34.824Z,37.77
2023-02-16T22:19:07.195Z,35.30
2023-02-16T22:21:36.490Z,36.50
2023-02-16T22:24:05.127Z,34.47
2023-02-16T22:26:35.726Z,38.97
2023-02-16T22:29:07.030Z,39.30
2023-02-16T22:31:35.413Z,38.47
2023-02-16T22:34:05.726Z,35.83
2023-02-16T22:36:34.384Z,41.77
2023-02-16T22:39:02.545Z,36.33
2023-02-16T22:41:30.736Z,40.87
2023-02-16T22:44:00.020Z,44.23
2023-02-16T22:46:31.199Z,40.80
2023-02-16T22:49:00.315Z,46.63
2023-02-16T22:51:29.836Z,50.63
2023-02-16T22:53:59.376Z,55.43
2023-02-16T22:56:27.786Z,70.10
2023-02-16T22:58:57.660Z,60.77
2023-02-16T23:01:27.247Z,73.53
2023-02-16T23:03:59.446Z,70.97
2023-02-16T23:06:29.229Z,82.33
2023-02-16T23:08:58.790Z,76.87
2023-02-16T23:11:27.597Z,86.83
2023-02-16T23:13:55.706Z,81.37
2023-02-16T23:16:26.809Z,88.67
2023-02-16T23:18:57.502Z,92.67
2023-02-16T23:21:27.981Z,93.20
2023-02-16T23:23:57.067Z,94.43
2023-02-16T23:26:26.875Z,89.23
2023-02-16T23:28:57.348Z,80.20
2023-02-16T23:31:25.486Z,95.40
2023-02-16T23:33:53.953Z,102.70
2023-02-16T23:36:23.409Z,94.80
2023-02-16T23:38:51.429Z,103.37
2023-02-16T23:41:19.807Z,103.40
2023-02-16T23:43:47.818Z,107.82
2023-02-16T23:46:15.924Z,112.68
2023-02-16T23:48:44.207Z,107.17
2023-02-16T23:51:12.369Z,117.40
2023-02-16T23:53:42.108Z,110.10
2023-02-16T23:56:13.622Z,108.77
2023-02-16T23:58:44.954Z,104.78
